Weather at Agiou Pavlou Harbor Heliport

Public forecast

Using degrees Celsius for public forecast. Weather courtesy of forecast.io.

Closest aviation weather report (METAR) to Agiou Pavlou Harbor Heliport

Closest report is Limnos Airport, 46.2 nm (85.5 km) ESE.

2024/07/18 22:50 (retrieved 23 minutes ago)

LGLM 182250Z 34006KT CAVOK 29/18 Q1011

Closest aviation forecast (TAF) to Agiou Pavlou Harbor Heliport

Closest forecast is Kavala Alexander the Great International Airport, 47.8 nm (88.6 km) NNE.

2024/07/18 18:14 (retrieved 5 hours ago)

TAF LGKV 181700Z 1818/1918 22012KT 9999 FEW030 BECMG 1818/1820 04015KT PROB40 TEMPO 1909/1918 5000 TSRA FEW018CB SCT025 BKN080